sensor_id;sensor_type;location;lat;lon;timestamp;temperature;humidity
3344;DHT22;1685;53.104;8.228;2023-02-15T00:00:54;0.80;99.90
3344;DHT22;1685;53.104;8.228;2023-02-15T00:03:21;1.00;99.90
3344;DHT22;1685;53.104;8.228;2023-02-15T00:05:47;0.80;99.90
3344;DHT22;1685;53.104;8.228;2023-02-15T00:08:14;0.80;99.90
3344;DHT22;1685;53.104;8.228;2023-02-15T00:10:41;0.80;99.90
3344;DHT22;1685;53.104;8.228;2023-02-15T00:13:09;0.80;99.90
3344;DHT22;1685;53.104;8.228;2023-02-15T00:15:35;0.60;99.90
3344;DHT22;1685;53.104;8.228;2023-02-15T00:18:02;0.80;99.90
3344;DHT22;1685;53.104;8.228;2023-02-15T00:20:29;0.80;99.90
3344;DHT22;1685;53.104;8.228;2023-02-15T00:22:55;0.80;99.90
3344;DHT22;1685;53.104;8.228;2023-02-15T00:25:22;0.60;99.90
3344;DHT22;1685;53.104;8.228;2023-02-15T00:27:49;0.80;99.90
3344;DHT22;1685;53.104;8.228;2023-02-15T00:30:17;0.50;99.90
3344;DHT22;1685;53.104;8.228;2023-02-15T00:35:11;0.70;99.90
3344;DHT22;1685;53.104;8.228;2023-02-15T00:37:38;0.50;99.90
3344;DHT22;1685;53.104;8.228;2023-02-15T00:40:05;0.60;99.90
3344;DHT22;1685;53.104;8.228;2023-02-15T00:42:32;0.50;99.90
3344;DHT22;1685;53.104;8.228;2023-02-15T00:44:59;0.50;99.90
3344;DHT22;1685;53.104;8.228;2023-02-15T00:47:27;0.50;99.90
3344;DHT22;1685;53.104;8.228;2023-02-15T00:49:54;0.40;99.90
3344;DHT22;1685;53.104;8.228;2023-02-15T00:52:20;0.30;99.90
3344;DHT22;1685;53.104;8.228;2023-02-15T00:54:47;0.40;99.90
3344;DHT22;1685;53.104;8.228;2023-02-15T00:59:41;0.40;99.90
3344;DHT22;1685;53.104;8.228;2023-02-15T01:02:07;0.20;99.90
3344;DHT22;1685;53.104;8.228;2023-02-15T01:04:35;0.40;99.90
3344;DHT22;1685;53.104;8.228;2023-02-15T01:07:02;0.30;99.90
3344;DHT22;1685;53.104;8.228;2023-02-15T01:11:56;0.30;99.90
3344;DHT22;1685;53.104;8.228;2023-02-15T01:14:23;0.50;99.90
3344;DHT22;1685;53.104;8.228;2023-02-15T01:16:49;0.40;99.90
3344;DHT22;1685;53.104;8.228;2023-02-15T01:19:16;0.40;99.90
3344;DHT22;1685;53.104;8.228;2023-02-15T01:21:44;0.30;99.90
3344;DHT22;1685;53.104;8.228;2023-02-15T01:24:12;0.20;99.90
3344;DHT22;1685;53.104;8.228;2023-02-15T01:26:39;0.30;99.90
3344;DHT22;1685;53.104;8.228;2023-02-15T01:29:05;0.40;99.90
3344;DHT22;1685;53.104;8.228;2023-02-15T01:31:32;0.70;99.90
3344;DHT22;1685;53.104;8.228;2023-02-15T01:33:59;0.20;99.90
3344;DHT22;1685;53.104;8.228;2023-02-15T01:36:26;0.20;99.90
3344;DHT22;1685;53.104;8.228;2023-02-15T01:38:54;0.20;99.90
3344;DHT22;1685;53.104;8.228;2023-02-15T01:41:20;0.20;99.90
3344;DHT22;1685;53.104;8.228;2023-02-15T01:43:49;0.80;99.90
3344;DHT22;1685;53.104;8.228;2023-02-15T01:46:18;0.20;99.90
3344;DHT22;1685;53.104;8.228;2023-02-15T01:48:48;0.20;99.90
3344;DHT22;1685;53.104;8.228;2023-02-15T01:51:18;0.10;99.90
3344;DHT22;1685;53.104;8.228;2023-02-15T01:53:49;0.20;99.90
3344;DHT22;1685;53.104;8.228;2023-02-15T01:56:20;0.20;99.90
3344;DHT22;1685;53.104;8.228;2023-02-15T01:58:49;0.20;99.90
3344;DHT22;1685;53.104;8.228;2023-02-15T02:01:18;0.10;99.90
3344;DHT22;1685;53.104;8.228;2023-02-15T02:03:51;0.10;99.90
3344;DHT22;1685;53.104;8.228;2023-02-15T02:06:19;0.10;99.90
3344;DHT22;1685;53.104;8.228;2023-02-15T02:08:48;0.10;99.90
3344;DHT22;1685;53.104;8.228;2023-02-15T02:11:15;0.20;99.90
3344;DHT22;1685;53.104;8.228;2023-02-15T02:13:44;0.20;99.90
3344;DHT22;1685;53.104;8.228;2023-02-15T02:16:16;0.20;99.90
3344;DHT22;1685;53.104;8.228;2023-02-15T02:18:59;-0.10;99.90
3344;DHT22;1685;53.104;8.228;2023-02-15T02:22:08;0.10;99.90
3344;DHT22;1685;53.104;8.228;2023-02-15T02:25:18;0.60;99.90
3344;DHT22;1685;53.104;8.228;2023-02-15T02:27:56;0.00;99.90
3344;DHT22;1685;53.104;8.228;2023-02-15T02:30:53;0.00;99.90
3344;DHT22;1685;53.104;8.228;2023-02-15T02:33:52;0.10;99.90
3344;DHT22;1685;53.104;8.228;2023-02-15T02:36:25;0.00;99.90
3344;DHT22;1685;53.104;8.228;2023-02-15T02:39:06;0.00;99.90
3344;DHT22;1685;53.104;8.228;2023-02-15T02:41:40;0.10;99.90
3344;DHT22;1685;53.104;8.228;2023-02-15T02:44:13;0.00;99.90
3344;DHT22;1685;53.104;8.228;2023-02-15T02:46:51;0.00;99.90
3344;DHT22;1685;53.104;8.228;2023-02-15T02:49:32;0.10;99.90
3344;DHT22;1685;53.104;8.228;2023-02-15T02:52:00;-0.30;99.90
3344;DHT22;1685;53.104;8.228;2023-02-15T02:54:28;-0.10;99.90
3344;DHT22;1685;53.104;8.228;2023-02-15T02:56:56;-0.10;99.90
3344;DHT22;1685;53.104;8.228;2023-02-15T02:59:29;-0.40;99.90
3344;DHT22;1685;53.104;8.228;2023-02-15T03:02:01;-0.10;99.90
3344;DHT22;1685;53.104;8.228;2023-02-15T03:04:36;-0.20;99.90
3344;DHT22;1685;53.104;8.228;2023-02-15T03:07:06;-0.10;99.90
3344;DHT22;1685;53.104;8.228;2023-02-15T03:09:36;-0.10;99.90
3344;DHT22;1685;53.104;8.228;2023-02-15T03:12:08;-1.30;99.90
3344;DHT22;1685;53.104;8.228;2023-02-15T03:14:37;0.00;99.90
3344;DHT22;1685;53.104;8.228;2023-02-15T03:17:07;-0.20;99.90
3344;DHT22;1685;53.104;8.228;2023-02-15T03:19:36;-0.30;99.90
3344;DHT22;1685;53.104;8.228;2023-02-15T03:22:07;-0.40;99.90
3344;DHT22;1685;53.104;8.228;2023-02-15T03:24:37;-0.30;99.90
3344;DHT22;1685;53.104;8.228;2023-02-15T03:27:09;-0.20;99.90
3344;DHT22;1685;53.104;8.228;2023-02-15T03:29:37;-0.40;99.90
3344;DHT22;1685;53.104;8.228;2023-02-15T03:32:07;-0.30;99.90
3344;DHT22;1685;53.104;8.228;2023-02-15T03:34:37;-0.30;99.90
3344;DHT22;1685;53.104;8.228;2023-02-15T03:37:10;-0.40;99.90
3344;DHT22;1685;53.104;8.228;2023-02-15T03:39:42;-0.40;99.90
3344;DHT22;1685;53.104;8.228;2023-02-15T03:42:14;-0.40;99.90
3344;DHT22;1685;53.104;8.228;2023-02-15T03:44:49;-0.30;99.90
3344;DHT22;1685;53.104;8.228;2023-02-15T03:47:19;-0.30;99.90
3344;DHT22;1685;53.104;8.228;2023-02-15T03:49:52;-0.30;99.90
3344;DHT22;1685;53.104;8.228;2023-02-15T03:52:21;-0.50;99.90
3344;DHT22;1685;53.104;8.228;2023-02-15T03:54:50;-0.40;99.90
3344;DHT22;1685;53.104;8.228;2023-02-15T03:57:19;-0.40;99.90
3344;DHT22;1685;53.104;8.228;2023-02-15T04:00:09;-0.40;99.90
3344;DHT22;1685;53.104;8.228;2023-02-15T04:03:11;-0.40;99.90
3344;DHT22;1685;53.104;8.228;2023-02-15T04:05:41;-0.40;99.90
3344;DHT22;1685;53.104;8.228;2023-02-15T04:08:08;-0.40;99.90
3344;DHT22;1685;53.104;8.228;2023-02-15T04:10:35;-0.40;99.90
3344;DHT22;1685;53.104;8.228;2023-02-15T04:13:22;-0.50;99.90
3344;DHT22;1685;53.104;8.228;2023-02-15T04:15:49;-0.40;99.90
3344;DHT22;1685;53.104;8.228;2023-02-15T04:18:31;-0.50;99.90
3344;DHT22;1685;53.104;8.228;2023-02-15T04:21:17;-0.50;99.90
3344;DHT22;1685;53.104;8.228;2023-02-15T04:24:02;-0.40;99.90
3344;DHT22;1685;53.104;8.228;2023-02-15T04:26:46;-0.60;99.90
3344;DHT22;1685;53.104;8.228;2023-02-15T04:29:14;-0.40;99.90
3344;DHT22;1685;53.104;8.228;2023-02-15T04:31:41;-0.60;99.90
3344;DHT22;1685;53.104;8.228;2023-02-15T04:34:08;-0.50;99.90
3344;DHT22;1685;53.104;8.228;2023-02-15T04:36:36;-0.60;99.90
3344;DHT22;1685;53.104;8.228;2023-02-15T04:39:03;-0.50;99.90
3344;DHT22;1685;53.104;8.228;2023-02-15T04:41:30;-0.40;99.90
3344;DHT22;1685;53.104;8.228;2023-02-15T04:43:57;-0.60;99.90
3344;DHT22;1685;53.104;8.228;2023-02-15T04:46:25;-0.60;99.90
3344;DHT22;1685;53.104;8.228;2023-02-15T04:48:51;-0.60;99.90
3344;DHT22;1685;53.104;8.228;2023-02-15T04:53:46;-0.60;99.90
3344;DHT22;1685;53.104;8.228;2023-02-15T04:56:13;-0.70;99.90
3344;DHT22;1685;53.104;8.228;2023-02-15T04:58:40;-0.70;99.90
3344;DHT22;1685;53.104;8.228;2023-02-15T05:01:07;-0.70;99.90
3344;DHT22;1685;53.104;8.228;2023-02-15T05:03:34;-0.80;99.90
3344;DHT22;1685;53.104;8.228;2023-02-15T05:06:01;-0.70;99.90
3344;DHT22;1685;53.104;8.228;2023-02-15T05:08:28;-0.70;99.90
3344;DHT22;1685;53.104;8.228;2023-02-15T05:10:57;-0.80;99.90
3344;DHT22;1685;53.104;8.228;2023-02-15T05:15:51;-0.70;99.90
3344;DHT22;1685;53.104;8.228;2023-02-15T05:18:19;-0.70;99.90
3344;DHT22;1685;53.104;8.228;2023-02-15T05:20:46;-0.70;99.90
3344;DHT22;1685;53.104;8.228;2023-02-15T05:23:13;-0.80;99.90
3344;DHT22;1685;53.104;8.228;2023-02-15T05:25:40;-0.80;99.90
3344;DHT22;1685;53.104;8.228;2023-02-15T05:28:27;-1.00;99.90
3344;DHT22;1685;53.104;8.228;2023-02-15T05:31:02;-0.80;99.90
3344;DHT22;1685;53.104;8.228;2023-02-15T05:33:29;-0.80;99.90
3344;DHT22;1685;53.104;8.228;2023-02-15T05:35:56;-0.80;99.90
3344;DHT22;1685;53.104;8.228;2023-02-15T05:38:23;-0.90;99.90
3344;DHT22;1685;53.104;8.228;2023-02-15T05:40:50;-0.80;99.90
3344;DHT22;1685;53.104;8.228;2023-02-15T05:43:17;-1.00;99.90
3344;DHT22;1685;53.104;8.228;2023-02-15T05:45:46;-0.90;99.90
3344;DHT22;1685;53.104;8.228;2023-02-15T05:48:13;-1.00;99.90
3344;DHT22;1685;53.104;8.228;2023-02-15T05:50:39;-0.90;99.90
3344;DHT22;1685;53.104;8.228;2023-02-15T05:53:06;-1.00;99.90
3344;DHT22;1685;53.104;8.228;2023-02-15T05:55:33;-0.90;99.90
3344;DHT22;1685;53.104;8.228;2023-02-15T05:57:59;-0.80;99.90
3344;DHT22;1685;53.104;8.228;2023-02-15T06:00:26;-0.80;99.90
3344;DHT22;1685;53.104;8.228;2023-02-15T06:02:54;-1.00;99.90
3344;DHT22;1685;53.104;8.228;2023-02-15T06:05:21;-0.90;99.90
3344;DHT22;1685;53.104;8.228;2023-02-15T06:07:48;-0.90;99.90
3344;DHT22;1685;53.104;8.228;2023-02-15T06:10:15;-1.00;99.90
3344;DHT22;1685;53.104;8.228;2023-02-15T06:12:41;-1.00;99.90
3344;DHT22;1685;53.104;8.228;2023-02-15T06:15:08;-1.00;99.90
3344;DHT22;1685;53.104;8.228;2023-02-15T06:17:35;-1.10;99.90
3344;DHT22;1685;53.104;8.228;2023-02-15T06:20:04;-0.90;99.90
3344;DHT22;1685;53.104;8.228;2023-02-15T06:22:31;-1.00;99.90
3344;DHT22;1685;53.104;8.228;2023-02-15T06:24:58;-1.20;99.90
3344;DHT22;1685;53.104;8.228;2023-02-15T06:27:24;-1.20;99.90
3344;DHT22;1685;53.104;8.228;2023-02-15T06:29:51;-1.00;99.90
3344;DHT22;1685;53.104;8.228;2023-02-15T06:34:45;-1.20;99.90
3344;DHT22;1685;53.104;8.228;2023-02-15T06:37:13;-1.20;99.90
3344;DHT22;1685;53.104;8.228;2023-02-15T06:39:39;-1.20;99.90
3344;DHT22;1685;53.104;8.228;2023-02-15T06:42:06;-1.10;99.90
3344;DHT22;1685;53.104;8.228;2023-02-15T06:44:33;-0.80;99.90
3344;DHT22;1685;53.104;8.228;2023-02-15T06:46:59;-1.00;99.90
3344;DHT22;1685;53.104;8.228;2023-02-15T06:49:26;-1.10;99.90
3344;DHT22;1685;53.104;8.228;2023-02-15T06:51:53;-1.20;99.90
3344;DHT22;1685;53.104;8.228;2023-02-15T06:54:21;-1.30;99.90
3344;DHT22;1685;53.104;8.228;2023-02-15T06:56:47;-1.30;99.90
3344;DHT22;1685;53.104;8.228;2023-02-15T07:04:09;-1.40;99.90
3344;DHT22;1685;53.104;8.228;2023-02-15T07:06:36;-1.20;99.90
3344;DHT22;1685;53.104;8.228;2023-02-15T07:09:03;-1.20;99.90
3344;DHT22;1685;53.104;8.228;2023-02-15T07:11:32;-1.30;99.90
3344;DHT22;1685;53.104;8.228;2023-02-15T07:14:16;-1.00;99.90
3344;DHT22;1685;53.104;8.228;2023-02-15T07:16:42;-1.10;99.90
3344;DHT22;1685;53.104;8.228;2023-02-15T07:19:09;-1.00;99.90
3344;DHT22;1685;53.104;8.228;2023-02-15T07:21:36;-0.60;99.90
3344;DHT22;1685;53.104;8.228;2023-02-15T07:24:03;-1.10;99.90
3344;DHT22;1685;53.104;8.228;2023-02-15T07:26:32;-1.20;99.90
3344;DHT22;1685;53.104;8.228;2023-02-15T07:28:59;-1.10;99.90
3344;DHT22;1685;53.104;8.228;2023-02-15T07:31:26;-0.90;99.90
3344;DHT22;1685;53.104;8.228;2023-02-15T07:33:53;-1.00;99.90
3344;DHT22;1685;53.104;8.228;2023-02-15T07:36:19;-0.90;99.90
3344;DHT22;1685;53.104;8.228;2023-02-15T07:38:46;-0.80;99.90
3344;DHT22;1685;53.104;8.228;2023-02-15T07:41:14;-0.80;99.90
3344;DHT22;1685;53.104;8.228;2023-02-15T07:43:44;-0.80;99.90
3344;DHT22;1685;53.104;8.228;2023-02-15T07:46:13;-0.60;99.90
3344;DHT22;1685;53.104;8.228;2023-02-15T07:48:41;-0.60;99.90
3344;DHT22;1685;53.104;8.228;2023-02-15T07:51:10;-0.50;99.90
3344;DHT22;1685;53.104;8.228;2023-02-15T07:53:38;-0.50;99.90
3344;DHT22;1685;53.104;8.228;2023-02-15T07:56:06;-0.10;99.90
3344;DHT22;1685;53.104;8.228;2023-02-15T07:58:34;-0.20;99.90
3344;DHT22;1685;53.104;8.228;2023-02-15T08:01:23;-0.40;99.90
3344;DHT22;1685;53.104;8.228;2023-02-15T08:03:51;-0.30;99.90
3344;DHT22;1685;53.104;8.228;2023-02-15T08:06:18;-0.20;99.90
3344;DHT22;1685;53.104;8.228;2023-02-15T08:08:44;0.00;99.90
3344;DHT22;1685;53.104;8.228;2023-02-15T08:11:17;0.00;99.90
3344;DHT22;1685;53.104;8.228;2023-02-15T08:13:59;0.10;99.90
3344;DHT22;1685;53.104;8.228;2023-02-15T08:16:31;0.60;99.90
3344;DHT22;1685;53.104;8.228;2023-02-15T08:19:00;0.40;99.90
3344;DHT22;1685;53.104;8.228;2023-02-15T08:21:28;0.80;99.90
3344;DHT22;1685;53.104;8.228;2023-02-15T08:23:56;1.00;99.90
3344;DHT22;1685;53.104;8.228;2023-02-15T08:26:23;1.20;99.90
3344;DHT22;1685;53.104;8.228;2023-02-15T08:28:50;1.30;99.90
3344;DHT22;1685;53.104;8.228;2023-02-15T08:31:18;1.60;99.90
3344;DHT22;1685;53.104;8.228;2023-02-15T08:33:47;1.90;99.90
3344;DHT22;1685;53.104;8.228;2023-02-15T08:36:15;1.90;99.90
3344;DHT22;1685;53.104;8.228;2023-02-15T08:38:43;2.20;99.90
3344;DHT22;1685;53.104;8.228;2023-02-15T08:41:11;2.10;99.90
3344;DHT22;1685;53.104;8.228;2023-02-15T08:43:38;2.10;99.90
3344;DHT22;1685;53.104;8.228;2023-02-15T08:46:05;2.20;99.90
3344;DHT22;1685;53.104;8.228;2023-02-15T08:51:04;2.40;99.90
3344;DHT22;1685;53.104;8.228;2023-02-15T08:53:31;2.80;99.90
3344;DHT22;1685;53.104;8.228;2023-02-15T08:55:59;2.90;99.90
3344;DHT22;1685;53.104;8.228;2023-02-15T09:03:19;3.40;99.90
3344;DHT22;1685;53.104;8.228;2023-02-15T09:05:46;3.50;99.90
3344;DHT22;1685;53.104;8.228;2023-02-15T09:08:14;3.60;99.90
3344;DHT22;1685;53.104;8.228;2023-02-15T09:10:41;3.50;99.90
3344;DHT22;1685;53.104;8.228;2023-02-15T09:13:08;3.30;99.90
3344;DHT22;1685;53.104;8.228;2023-02-15T09:15:34;3.80;99.90
3344;DHT22;1685;53.104;8.228;2023-02-15T09:18:02;3.70;99.90
3344;DHT22;1685;53.104;8.228;2023-02-15T09:20:31;4.00;99.90
3344;DHT22;1685;53.104;8.228;2023-02-15T09:25:27;4.20;99.90
3344;DHT22;1685;53.104;8.228;2023-02-15T09:27:54;4.10;99.90
3344;DHT22;1685;53.104;8.228;2023-02-15T09:30:21;4.30;99.90
3344;DHT22;1685;53.104;8.228;2023-02-15T09:32:47;4.50;99.90
3344;DHT22;1685;53.104;8.228;2023-02-15T09:37:41;4.70;99.90
3344;DHT22;1685;53.104;8.228;2023-02-15T09:40:08;4.60;99.90
3344;DHT22;1685;53.104;8.228;2023-02-15T09:42:53;4.70;99.90
3344;DHT22;1685;53.104;8.228;2023-02-15T09:45:41;5.00;99.90
3344;DHT22;1685;53.104;8.228;2023-02-15T09:51:31;5.30;99.90
3344;DHT22;1685;53.104;8.228;2023-02-15T09:54:17;5.40;99.90
3344;DHT22;1685;53.104;8.228;2023-02-15T09:56:49;5.40;99.90
3344;DHT22;1685;53.104;8.228;2023-02-15T09:59:26;5.50;99.90
3344;DHT22;1685;53.104;8.228;2023-02-15T10:02:02;5.70;99.90
3344;DHT22;1685;53.104;8.228;2023-02-15T10:04:46;5.80;99.90
3344;DHT22;1685;53.104;8.228;2023-02-15T10:07:28;6.00;99.90
3344;DHT22;1685;53.104;8.228;2023-02-15T10:10:05;6.00;99.90
3344;DHT22;1685;53.104;8.228;2023-02-15T10:12:47;6.10;99.90
3344;DHT22;1685;53.104;8.228;2023-02-15T10:15:24;6.40;99.90
3344;DHT22;1685;53.104;8.228;2023-02-15T10:18:03;6.30;99.90
3344;DHT22;1685;53.104;8.228;2023-02-15T10:20:39;6.40;99.90
3344;DHT22;1685;53.104;8.228;2023-02-15T10:23:29;6.50;99.90
3344;DHT22;1685;53.104;8.228;2023-02-15T10:26:05;6.70;99.90
3344;DHT22;1685;53.104;8.228;2023-02-15T10:28:44;6.80;99.90
3344;DHT22;1685;53.104;8.228;2023-02-15T10:31:23;6.80;99.90
3344;DHT22;1685;53.104;8.228;2023-02-15T10:34:02;7.00;99.90
3344;DHT22;1685;53.104;8.228;2023-02-15T10:36:53;6.90;99.90
3344;DHT22;1685;53.104;8.228;2023-02-15T10:39:26;7.10;99.90
3344;DHT22;1685;53.104;8.228;2023-02-15T10:42:01;7.10;99.90
3344;DHT22;1685;53.104;8.228;2023-02-15T10:44:38;7.20;99.90
3344;DHT22;1685;53.104;8.228;2023-02-15T10:47:26;7.40;99.90
3344;DHT22;1685;53.104;8.228;2023-02-15T10:50:13;7.30;99.90
3344;DHT22;1685;53.104;8.228;2023-02-15T10:52:54;7.40;99.90
3344;DHT22;1685;53.104;8.228;2023-02-15T10:55:35;7.50;99.90
3344;DHT22;1685;53.104;8.228;2023-02-15T10:58:11;7.60;99.90
3344;DHT22;1685;53.104;8.228;2023-02-15T11:00:45;7.70;99.90
3344;DHT22;1685;53.104;8.228;2023-02-15T11:03:29;7.90;99.90
3344;DHT22;1685;53.104;8.228;2023-02-15T11:06:03;8.00;99.90
3344;DHT22;1685;53.104;8.228;2023-02-15T11:08:34;8.10;99.90
3344;DHT22;1685;53.104;8.228;2023-02-15T11:11:03;8.20;99.90
3344;DHT22;1685;53.104;8.228;2023-02-15T11:13:34;8.20;99.90
3344;DHT22;1685;53.104;8.228;2023-02-15T11:16:06;8.30;99.90
3344;DHT22;1685;53.104;8.228;2023-02-15T11:18:40;8.30;99.90
3344;DHT22;1685;53.104;8.228;2023-02-15T11:21:11;8.40;99.90
3344;DHT22;1685;53.104;8.228;2023-02-15T11:23:43;8.50;99.90
3344;DHT22;1685;53.104;8.228;2023-02-15T11:26:14;8.40;99.90
3344;DHT22;1685;53.104;8.228;2023-02-15T11:28:47;8.80;99.90
3344;DHT22;1685;53.104;8.228;2023-02-15T11:31:17;8.70;99.90
3344;DHT22;1685;53.104;8.228;2023-02-15T11:33:49;8.90;99.90
3344;DHT22;1685;53.104;8.228;2023-02-15T11:36:21;8.70;99.90
3344;DHT22;1685;53.104;8.228;2023-02-15T11:38:54;8.80;99.90
3344;DHT22;1685;53.104;8.228;2023-02-15T11:41:24;10.10;99.90
3344;DHT22;1685;53.104;8.228;2023-02-15T11:43:56;8.80;99.90
3344;DHT22;1685;53.104;8.228;2023-02-15T11:46:24;9.00;99.90
3344;DHT22;1685;53.104;8.228;2023-02-15T11:48:52;8.90;99.90
3344;DHT22;1685;53.104;8.228;2023-02-15T11:51:21;9.00;99.90
3344;DHT22;1685;53.104;8.228;2023-02-15T11:53:49;9.00;99.90
3344;DHT22;1685;53.104;8.228;2023-02-15T11:56:18;8.90;99.90
3344;DHT22;1685;53.104;8.228;2023-02-15T11:58:48;9.20;99.90
3344;DHT22;1685;53.104;8.228;2023-02-15T12:01:21;8.90;99.90
3344;DHT22;1685;53.104;8.228;2023-02-15T12:03:54;9.10;99.90
3344;DHT22;1685;53.104;8.228;2023-02-15T12:06:24;9.30;99.90
3344;DHT22;1685;53.104;8.228;2023-02-15T12:08:59;9.10;99.90
3344;DHT22;1685;53.104;8.228;2023-02-15T12:11:32;9.30;99.90
3344;DHT22;1685;53.104;8.228;2023-02-15T12:14:01;9.50;99.90
3344;DHT22;1685;53.104;8.228;2023-02-15T12:16:32;9.30;99.90
3344;DHT22;1685;53.104;8.228;2023-02-15T12:19:02;9.50;99.90
3344;DHT22;1685;53.104;8.228;2023-02-15T12:21:30;9.50;99.90
3344;DHT22;1685;53.104;8.228;2023-02-15T12:24:00;9.50;99.90
3344;DHT22;1685;53.104;8.228;2023-02-15T12:26:31;9.70;99.90
3344;DHT22;1685;53.104;8.228;2023-02-15T12:29:00;9.90;99.90
3344;DHT22;1685;53.104;8.228;2023-02-15T12:31:31;9.90;99.90
3344;DHT22;1685;53.104;8.228;2023-02-15T12:34:02;10.10;99.90
3344;DHT22;1685;53.104;8.228;2023-02-15T12:36:33;10.10;99.90
3344;DHT22;1685;53.104;8.228;2023-02-15T12:39:18;10.20;99.90
3344;DHT22;1685;53.104;8.228;2023-02-15T12:41:57;10.20;99.90
3344;DHT22;1685;53.104;8.228;2023-02-15T12:44:26;10.10;99.90
3344;DHT22;1685;53.104;8.228;2023-02-15T12:46:59;10.10;99.90
3344;DHT22;1685;53.104;8.228;2023-02-15T12:49:28;10.20;99.90
3344;DHT22;1685;53.104;8.228;2023-02-15T12:51:57;10.20;99.90
3344;DHT22;1685;53.104;8.228;2023-02-15T12:54:37;10.40;99.90
3344;DHT22;1685;53.104;8.228;2023-02-15T12:57:29;10.30;99.90
3344;DHT22;1685;53.104;8.228;2023-02-15T12:59:58;10.40;99.90
3344;DHT22;1685;53.104;8.228;2023-02-15T13:02:28;10.40;99.90
3344;DHT22;1685;53.104;8.228;2023-02-15T13:05:05;10.40;99.90
3344;DHT22;1685;53.104;8.228;2023-02-15T13:12:30;10.30;99.90
3344;DHT22;1685;53.104;8.228;2023-02-15T13:17:30;10.30;99.90
3344;DHT22;1685;53.104;8.228;2023-02-15T13:20:04;10.10;99.90
3344;DHT22;1685;53.104;8.228;2023-02-15T13:22:37;10.20;99.90
3344;DHT22;1685;53.104;8.228;2023-02-15T13:25:12;10.40;99.90
3344;DHT22;1685;53.104;8.228;2023-02-15T13:27:41;10.40;99.90
3344;DHT22;1685;53.104;8.228;2023-02-15T13:30:20;10.50;99.90
3344;DHT22;1685;53.104;8.228;2023-02-15T13:32:49;10.60;99.90
3344;DHT22;1685;53.104;8.228;2023-02-15T13:35:20;10.60;99.90
3344;DHT22;1685;53.104;8.228;2023-02-15T13:40:48;10.60;99.90
3344;DHT22;1685;53.104;8.228;2023-02-15T13:43:33;10.80;99.90
3344;DHT22;1685;53.104;8.228;2023-02-15T13:46:13;10.70;99.90
3344;DHT22;1685;53.104;8.228;2023-02-15T13:48:46;10.70;99.90
3344;DHT22;1685;53.104;8.228;2023-02-15T13:51:21;10.70;99.90
3344;DHT22;1685;53.104;8.228;2023-02-15T13:54:08;10.60;99.90
3344;DHT22;1685;53.104;8.228;2023-02-15T13:56:51;10.60;99.90
3344;DHT22;1685;53.104;8.228;2023-02-15T13:59:38;10.40;99.90
3344;DHT22;1685;53.104;8.228;2023-02-15T14:05:21;10.50;99.90
3344;DHT22;1685;53.104;8.228;2023-02-15T14:07:58;10.50;99.90
3344;DHT22;1685;53.104;8.228;2023-02-15T14:10:38;10.40;99.90
3344;DHT22;1685;53.104;8.228;2023-02-15T14:16:14;10.50;99.90
3344;DHT22;1685;53.104;8.228;2023-02-15T14:18:48;10.50;99.90
3344;DHT22;1685;53.104;8.228;2023-02-15T14:21:17;10.50;99.90
3344;DHT22;1685;53.104;8.228;2023-02-15T14:23:57;10.50;99.90
3344;DHT22;1685;53.104;8.228;2023-02-15T14:26:34;10.80;99.90
3344;DHT22;1685;53.104;8.228;2023-02-15T14:29:16;10.30;99.90
3344;DHT22;1685;53.104;8.228;2023-02-15T14:31:47;10.30;99.90
3344;DHT22;1685;53.104;8.228;2023-02-15T14:34:21;10.20;99.90
3344;DHT22;1685;53.104;8.228;2023-02-15T14:36:49;10.10;99.90
3344;DHT22;1685;53.104;8.228;2023-02-15T14:39:26;10.20;99.90
3344;DHT22;1685;53.104;8.228;2023-02-15T14:42:18;10.20;99.90
3344;DHT22;1685;53.104;8.228;2023-02-15T14:44:51;10.20;99.90
3344;DHT22;1685;53.104;8.228;2023-02-15T14:47:25;10.20;99.90
3344;DHT22;1685;53.104;8.228;2023-02-15T14:54:56;10.30;99.90
3344;DHT22;1685;53.104;8.228;2023-02-15T14:57:25;10.10;99.90
3344;DHT22;1685;53.104;8.228;2023-02-15T14:59:55;10.30;99.90
3344;DHT22;1685;53.104;8.228;2023-02-15T15:02:26;10.10;99.90
3344;DHT22;1685;53.104;8.228;2023-02-15T15:05:00;10.00;99.90
3344;DHT22;1685;53.104;8.228;2023-02-15T15:07:34;9.90;99.90
3344;DHT22;1685;53.104;8.228;2023-02-15T15:10:05;10.10;99.90
3344;DHT22;1685;53.104;8.228;2023-02-15T15:12:42;10.00;99.90
3344;DHT22;1685;53.104;8.228;2023-02-15T15:15:12;10.20;99.90
3344;DHT22;1685;53.104;8.228;2023-02-15T15:17:53;9.90;99.90
3344;DHT22;1685;53.104;8.228;2023-02-15T15:20:38;10.10;99.90
3344;DHT22;1685;53.104;8.228;2023-02-15T15:23:43;10.10;99.90
3344;DHT22;1685;53.104;8.228;2023-02-15T15:26:29;10.10;99.90
3344;DHT22;1685;53.104;8.228;2023-02-15T15:29:00;9.90;99.90
3344;DHT22;1685;53.104;8.228;2023-02-15T15:31:40;10.00;99.90
3344;DHT22;1685;53.104;8.228;2023-02-15T15:34:28;9.80;99.90
3344;DHT22;1685;53.104;8.228;2023-02-15T15:40:41;9.90;99.90
3344;DHT22;1685;53.104;8.228;2023-02-15T15:49:16;9.60;99.90
3344;DHT22;1685;53.104;8.228;2023-02-15T15:51:44;9.30;99.90
3344;DHT22;1685;53.104;8.228;2023-02-15T15:54:15;9.50;99.90
3344;DHT22;1685;53.104;8.228;2023-02-15T15:56:46;9.40;99.90
3344;DHT22;1685;53.104;8.228;2023-02-15T15:59:18;9.40;99.90
3344;DHT22;1685;53.104;8.228;2023-02-15T16:01:46;9.00;99.90
3344;DHT22;1685;53.104;8.228;2023-02-15T16:04:21;9.20;99.90
3344;DHT22;1685;53.104;8.228;2023-02-15T16:06:49;9.00;99.90
3344;DHT22;1685;53.104;8.228;2023-02-15T16:09:18;9.10;99.90
3344;DHT22;1685;53.104;8.228;2023-02-15T16:11:47;9.00;99.90
3344;DHT22;1685;53.104;8.228;2023-02-15T16:14:21;9.00;99.90
3344;DHT22;1685;53.104;8.228;2023-02-15T16:16:52;9.00;99.90
3344;DHT22;1685;53.104;8.228;2023-02-15T16:19:23;8.90;99.90
3344;DHT22;1685;53.104;8.228;2023-02-15T16:21:50;8.80;99.90
3344;DHT22;1685;53.104;8.228;2023-02-15T16:24:25;8.80;99.90
3344;DHT22;1685;53.104;8.228;2023-02-15T16:27:19;8.80;99.90
3344;DHT22;1685;53.104;8.228;2023-02-15T16:29:50;9.10;99.90
3344;DHT22;1685;53.104;8.228;2023-02-15T16:32:19;8.60;99.90
3344;DHT22;1685;53.104;8.228;2023-02-15T16:34:53;8.50;99.90
3344;DHT22;1685;53.104;8.228;2023-02-15T16:37:21;8.50;99.90
3344;DHT22;1685;53.104;8.228;2023-02-15T16:39:51;8.40;99.90
3344;DHT22;1685;53.104;8.228;2023-02-15T16:42:18;8.20;99.90
3344;DHT22;1685;53.104;8.228;2023-02-15T16:44:47;8.20;99.90
3344;DHT22;1685;53.104;8.228;2023-02-15T16:47:19;8.10;99.90
3344;DHT22;1685;53.104;8.228;2023-02-15T16:49:47;8.20;99.90
3344;DHT22;1685;53.104;8.228;2023-02-15T16:52:19;8.10;99.90
3344;DHT22;1685;53.104;8.228;2023-02-15T16:54:50;7.90;99.90
3344;DHT22;1685;53.104;8.228;2023-02-15T16:57:20;7.90;99.90
3344;DHT22;1685;53.104;8.228;2023-02-15T16:59:48;7.80;99.90
3344;DHT22;1685;53.104;8.228;2023-02-15T17:02:19;7.80;99.90
3344;DHT22;1685;53.104;8.228;2023-02-15T17:05:04;7.70;99.90
3344;DHT22;1685;53.104;8.228;2023-02-15T17:09:59;7.50;99.90
3344;DHT22;1685;53.104;8.228;2023-02-15T17:12:45;7.80;99.90
3344;DHT22;1685;53.104;8.228;2023-02-15T17:15:25;7.50;99.90
3344;DHT22;1685;53.104;8.228;2023-02-15T17:17:56;7.50;99.90
3344;DHT22;1685;53.104;8.228;2023-02-15T17:20:23;7.40;99.90
3344;DHT22;1685;53.104;8.228;2023-02-15T17:22:50;7.40;99.90
3344;DHT22;1685;53.104;8.228;2023-02-15T17:25:20;7.30;99.90
3344;DHT22;1685;53.104;8.228;2023-02-15T17:27:50;7.20;99.90
3344;DHT22;1685;53.104;8.228;2023-02-15T17:30:26;7.30;99.90
3344;DHT22;1685;53.104;8.228;2023-02-15T17:32:56;7.20;99.90
3344;DHT22;1685;53.104;8.228;2023-02-15T17:35:26;7.10;99.90
3344;DHT22;1685;53.104;8.228;2023-02-15T17:38:15;7.10;99.90
3344;DHT22;1685;53.104;8.228;2023-02-15T17:40:43;7.10;99.90
3344;DHT22;1685;53.104;8.228;2023-02-15T17:45:40;7.00;99.90
3344;DHT22;1685;53.104;8.228;2023-02-15T17:48:18;6.80;99.90
3344;DHT22;1685;53.104;8.228;2023-02-15T17:50:46;6.60;99.90